Time;durP1;ratioP1;P1;durP2;ratioP2;P2;SDS_P1;SDS_P2;PMS_P1;PMS_P2;Temp;Humidity;BMP_temperature;BMP_pressure;BME280_temperature;BME280_humidity;BME280_pressure;Samples;Min_cycle;Max_cycle;Signal;HPM_P1;HPM_P2
2022/01/24 00:01:55;;;;;;;17.23;8.20;;;;;;;9.95;97.52;101951.03;4867909;29;20457;-85
2022/01/24 00:04:23;;;;;;;23.33;8.67;;;;;;;9.88;97.22;101944.47;4867969;29;20493;-85
2022/01/24 00:06:50;;;;;;;27.17;7.77;;;;;;;9.80;96.90;101928.91;4868058;29;20480;-86
2022/01/24 00:09:19;;;;;;;17.27;7.60;;;;;;;9.82;97.17;101947.81;4882619;29;20438;-85
2022/01/24 00:14:45;;;;;;;10.70;5.43;;;;;;;9.74;97.20;101942.31;4883263;29;20478;-86
2022/01/24 00:17:29;;;;;;;19.53;6.20;;;;;;;9.71;96.90;101954.41;4899282;29;20450;-87
2022/01/24 00:28:09;;;;;;;11.83;5.67;;;;;;;9.56;97.52;101940.50;4885032;29;20936;-87
2022/01/24 00:30:37;;;;;;;17.17;5.97;;;;;;;9.53;97.65;101948.97;4881999;29;20450;-86
2022/01/24 00:33:07;;;;;;;20.90;6.20;;;;;;;9.55;97.67;101957.88;4882888;29;20953;-87
2022/01/24 00:35:36;;;;;;;14.33;5.33;;;;;;;9.53;97.53;101959.03;4867438;29;20449;-87
2022/01/24 00:38:04;;;;;;;18.43;6.30;;;;;;;9.49;97.53;101958.50;4897597;29;20537;-86
2022/01/24 00:40:36;;;;;;;12.60;5.63;;;;;;;9.44;97.58;101949.06;4867137;29;20953;-86
2022/01/24 00:43:11;;;;;;;20.03;6.40;;;;;;;9.43;97.50;101952.81;4883198;29;20485;-87
2022/01/24 00:46:32;;;;;;;17.77;6.00;;;;;;;9.41;98.23;101947.53;4868057;29;20536;-86
2022/01/24 00:48:54;;;;;;;16.60;5.90;;;;;;;9.35;97.99;101940.81;4878557;29;20445;-86
2022/01/24 00:56:54;;;;;;;13.60;6.23;;;;;;;9.26;98.35;101943.59;4884518;29;20449;-86
2022/01/24 00:59:22;;;;;;;17.53;5.17;;;;;;;9.21;98.17;101937.78;4898827;29;20446;-87
2022/01/24 01:01:50;;;;;;;13.60;4.93;;;;;;;9.19;97.73;101942.53;4866941;29;20445;-87
2022/01/24 01:04:20;;;;;;;11.17;5.03;;;;;;;9.16;97.96;101946.44;4881867;29;20489;-87
2022/01/24 01:06:49;;;;;;;10.33;4.90;;;;;;;9.12;97.98;101939.56;4867391;29;20501;-86
2022/01/24 01:20:26;;;;;;;12.67;5.10;;;;;;;9.11;98.95;101950.63;4897321;29;20492;-87
2022/01/24 01:22:54;;;;;;;12.17;5.47;;;;;;;9.06;98.89;101944.75;4867481;29;20536;-87
2022/01/24 01:25:21;;;;;;;12.47;5.13;;;;;;;9.11;98.55;101943.28;4881923;29;20461;-87
2022/01/24 01:27:52;;;;;;;12.40;5.00;;;;;;;9.03;98.26;101934.19;4869109;29;20540;-87
2022/01/24 01:30:33;;;;;;;8.13;4.40;;;;;;;9.06;98.29;101942.91;4871013;29;20991;-86
2022/01/24 01:33:11;;;;;;;10.10;4.20;;;;;;;9.05;98.31;101946.63;4901146;29;20540;-87
2022/01/24 01:52:19;;;;;;;9.80;3.63;;;;;;;8.91;97.54;101939.84;4885906;29;20438;-87
2022/01/24 01:57:18;;;;;;;9.10;3.70;;;;;;;8.74;97.56;101946.13;4885202;29;20830;-86
2022/01/24 01:59:45;;;;;;;9.13;3.33;;;;;;;8.74;98.23;101935.22;4884960;29;20542;-86
2022/01/24 02:02:13;;;;;;;11.47;3.77;;;;;;;8.70;98.13;101925.63;4869668;29;20446;-87
2022/01/24 02:04:42;;;;;;;12.97;3.40;;;;;;;8.79;98.72;101943.81;4869321;29;20485;-86
2022/01/24 02:07:13;;;;;;;7.13;3.93;;;;;;;8.82;98.70;101938.06;4869932;29;20963;-87
2022/01/24 02:09:44;;;;;;;6.50;3.50;;;;;;;8.83;98.44;101933.47;4885178;29;20445;-87
2022/01/24 02:12:19;;;;;;;6.97;3.10;;;;;;;8.85;99.06;101926.00;4870900;29;20455;-87
2022/01/24 02:14:54;;;;;;;10.00;3.63;;;;;;;8.97;100.00;101925.63;4899854;29;20457;-87
2022/01/24 02:17:36;;;;;;;8.63;2.97;;;;;;;9.19;100.00;101928.91;4886047;29;20444;-87
2022/01/24 02:20:25;;;;;;;15.00;3.20;;;;;;;9.44;100.00;101935.41;4873184;29;20532;-87
2022/01/24 02:25:39;;;;;;;11.63;2.80;;;;;;;9.84;100.00;101938.47;4887045;29;20949;-87
2022/01/24 02:28:10;;;;;;;9.27;2.50;;;;;;;10.05;100.00;101944.41;4869003;29;20453;-87
2022/01/24 02:31:07;;;;;;;10.73;3.03;;;;;;;10.24;100.00;101937.03;4869801;29;20452;-87
2022/01/24 02:33:35;;;;;;;13.47;2.43;;;;;;;10.41;100.00;101937.97;4900118;29;20445;-87
2022/01/24 02:36:03;;;;;;;13.23;3.03;;;;;;;10.55;100.00;101938.25;4869330;29;20865;-87
2022/01/24 02:38:47;;;;;;;9.33;2.83;;;;;;;10.68;100.00;101937.78;4868922;29;20453;-87
2022/01/24 02:49:32;;;;;;;10.40;3.87;;;;;;;11.07;100.00;101941.66;4902616;29;20485;-86
2022/01/24 02:52:08;;;;;;;18.20;2.70;;;;;;;11.07;100.00;101940.78;4888497;29;20549;-87
2022/01/24 02:54:37;;;;;;;11.90;2.70;;;;;;;11.15;100.00;101949.03;4874405;29;20944;-87
2022/01/24 02:57:06;;;;;;;10.37;3.10;;;;;;;11.20;100.00;101956.72;4889172;29;20520;-87
2022/01/24 02:59:35;;;;;;;10.17;3.33;;;;;;;11.23;100.00;101949.03;4893195;29;20441;-86
2022/01/24 03:02:04;;;;;;;8.13;2.70;;;;;;;11.26;100.00;101945.97;4894648;29;20470;-86
2022/01/24 03:04:36;;;;;;;9.13;2.80;;;;;;;11.30;100.00;101947.34;4894797;29;20473;-86
2022/01/24 03:07:04;;;;;;;16.50;2.23;;;;;;;11.33;100.00;101941.53;4909813;29;20453;-86
2022/01/24 03:09:33;;;;;;;11.03;2.90;;;;;;;11.36;100.00;101943.03;4872400;29;20442;-87
2022/01/24 03:12:08;;;;;;;11.70;3.07;;;;;;;11.38;100.00;101943.72;4884188;29;20446;-87
2022/01/24 03:14:36;;;;;;;11.13;2.63;;;;;;;11.43;100.00;101936.72;4870506;29;20452;-87
2022/01/24 03:17:05;;;;;;;13.63;2.80;;;;;;;11.49;100.00;101946.16;4868559;29;20452;-87
2022/01/24 03:19:33;;;;;;;11.63;2.23;;;;;;;11.51;100.00;101946.00;4883814;29;20446;-87
2022/01/24 03:22:00;;;;;;;15.40;4.47;;;;;;;11.46;100.00;101938.28;4883707;29;20446;-87
2022/01/24 03:24:28;;;;;;;8.13;2.47;;;;;;;11.51;100.00;101948.72;4883629;29;20489;-87
2022/01/24 03:26:55;;;;;;;12.37;2.60;;;;;;;11.56;100.00;101949.03;4883783;29;20442;-87
2022/01/24 03:29:26;;;;;;;9.30;2.33;;;;;;;11.53;100.00;101947.53;4869273;29;20442;-88
2022/01/24 03:31:54;;;;;;;13.33;1.77;;;;;;;11.60;100.00;101953.16;4868196;29;20492;-87
2022/01/24 03:34:22;;;;;;;11.00;2.47;;;;;;;11.60;100.00;101947.69;4868216;29;20446;-87
2022/01/24 03:36:49;;;;;;;7.63;2.27;;;;;;;11.62;100.00;101946.50;4883313;29;20468;-87
2022/01/24 03:39:17;;;;;;;7.20;2.60;;;;;;;11.53;100.00;101935.72;4868085;29;20473;-87
2022/01/24 03:41:45;;;;;;;10.43;2.77;;;;;;;11.63;100.00;101942.72;4868157;29;20446;-87
2022/01/24 03:44:15;;;;;;;8.77;2.70;;;;;;;11.67;100.00;101945.97;4898613;29;20490;-87
2022/01/24 03:47:13;;;;;;;14.77;2.30;;;;;;;11.62;100.00;101926.47;4868012;29;20793;-87
2022/01/24 03:49:45;;;;;;;10.13;2.93;;;;;;;11.67;100.00;101927.66;4887128;29;20482;-87
2022/01/24 03:52:16;;;;;;;11.37;2.60;;;;;;;11.70;100.00;101930.06;4883827;29;20548;-87
2022/01/24 03:54:44;;;;;;;20.33;2.77;;;;;;;11.74;100.00;101933.28;4868296;29;20434;-87
2022/01/24 03:57:13;;;;;;;11.57;2.03;;;;;;;11.75;100.00;101927.66;4867413;29;20972;-87
2022/01/24 03:59:41;;;;;;;18.33;3.23;;;;;;;11.71;100.00;101920.84;4868089;29;20461;-87
2022/01/24 04:02:09;;;;;;;13.80;2.07;;;;;;;11.74;100.00;101931.41;4867955;29;20474;-87
2022/01/24 04:04:37;;;;;;;14.67;2.40;;;;;;;11.79;100.00;101924.59;4882774;29;20853;-87
2022/01/24 04:07:06;;;;;;;6.60;2.00;;;;;;;11.83;100.00;101931.44;4883000;29;20532;-87
2022/01/24 04:09:34;;;;;;;14.77;4.60;;;;;;;11.85;100.00;101929.41;4898351;29;20518;-87
2022/01/24 04:12:07;;;;;;;18.03;2.77;;;;;;;11.80;100.00;101931.78;4868460;29;20442;-87
2022/01/24 04:14:40;;;;;;;14.77;2.70;;;;;;;11.87;100.00;101930.09;4867849;29;20445;-87
2022/01/24 04:22:16;;;;;;;16.73;3.07;;;;;;;11.92;100.00;101930.44;4897932;29;20441;-87
2022/01/24 04:24:45;;;;;;;11.67;2.20;;;;;;;11.92;100.00;101933.16;4867906;29;20490;-87
2022/01/24 04:27:13;;;;;;;12.03;2.30;;;;;;;11.93;100.00;101938.44;4882217;29;20541;-87
2022/01/24 04:29:43;;;;;;;10.30;2.10;;;;;;;11.94;100.00;101940.16;4796869;29;20477;-87
2022/01/24 04:32:11;;;;;;;13.43;2.50;;;;;;;11.87;100.00;101932.81;4811005;29;20444;-87
2022/01/24 04:34:38;;;;;;;12.00;2.40;;;;;;;11.86;100.00;101940.19;4811451;29;20445;-90
2022/01/24 04:37:06;;;;;;;28.90;3.07;;;;;;;11.88;100.00;101937.28;4795571;29;21027;-86
2022/01/24 04:39:34;;;;;;;7.73;2.33;;;;;;;11.86;100.00;101939.31;4808093;29;20448;-87
2022/01/24 04:42:09;;;;;;;14.00;2.80;;;;;;;11.83;100.00;101945.16;4840622;29;20445;-86
2022/01/24 04:45:58;;;;;;;22.37;3.27;;;;;;;11.80;100.00;101934.53;4797616;29;20488;-87
2022/01/24 04:50:18;;;;;;;12.13;1.97;;;;;;;11.69;100.00;101933.84;4842742;29;20441;-87
2022/01/24 04:50:43;;;;;;;8.97;2.90;;;;;;;11.71;100.00;101940.00;4897864;29;20468;-87
2022/01/24 04:53:31;;;;;;;7.77;1.90;;;;;;;11.71;100.00;101945.47;4884662;29;20948;-88
2022/01/24 04:56:00;;;;;;;13.20;2.20;;;;;;;11.65;100.00;101928.88;4884857;29;20572;-86
2022/01/24 04:58:28;;;;;;;9.87;1.93;;;;;;;11.68;100.00;101945.81;4897364;29;20492;-87
2022/01/24 05:00:55;;;;;;;12.57;2.63;;;;;;;11.67;100.00;101944.09;4881346;29;20864;-88
2022/01/24 05:03:23;;;;;;;13.40;2.33;;;;;;;11.67;100.00;101955.06;4897757;29;20449;-87
2022/01/24 05:05:52;;;;;;;16.10;3.00;;;;;;;11.67;100.00;101949.56;4881597;29;20489;-87
2022/01/24 05:08:23;;;;;;;5.60;1.90;;;;;;;11.54;100.00;101935.56;4882534;29;20872;-87
2022/01/24 05:10:58;;;;;;;9.33;2.83;;;;;;;11.59;100.00;101946.81;4897147;29;20854;-87
2022/01/24 05:24:37;;;;;;;7.00;2.07;;;;;;;11.45;100.00;101944.78;4883491;29;20517;-86
2022/01/24 05:27:05;;;;;;;15.13;2.93;;;;;;;11.48;100.00;101958.13;4881374;29;20484;-86
2022/01/24 05:29:35;;;;;;;11.43;2.20;;;;;;;11.46;100.00;101959.31;4896959;29;20953;-87
2022/01/24 05:32:04;;;;;;;8.40;2.30;;;;;;;11.48;100.00;101960.88;4881518;29;20445;-87
2022/01/24 05:34:32;;;;;;;14.30;2.30;;;;;;;11.48;100.00;101970.97;4897144;29;20446;-87
2022/01/24 05:37:00;;;;;;;11.03;2.30;;;;;;;11.45;100.00;101963.94;4866341;29;20450;-87
2022/01/24 05:39:28;;;;;;;9.13;2.20;;;;;;;11.45;100.00;101958.47;4881071;29;20541;-87
2022/01/24 05:41:56;;;;;;;10.07;2.30;;;;;;;11.46;100.00;101962.91;4881324;29;20540;-87
2022/01/24 05:44:24;;;;;;;11.83;2.40;;;;;;;11.43;100.00;101969.59;4896544;29;20511;-87
2022/01/24 05:46:52;;;;;;;9.30;2.17;;;;;;;11.46;100.00;101973.88;4881517;29;20442;-87
2022/01/24 05:49:19;;;;;;;12.30;3.00;;;;;;;11.47;100.00;101978.31;4881636;29;20552;-87
2022/01/24 05:51:47;;;;;;;16.97;2.70;;;;;;;11.48;100.00;101980.03;4881564;29;20541;-87
2022/01/24 05:54:15;;;;;;;7.73;2.33;;;;;;;11.46;100.00;101976.59;4896820;29;20940;-86
2022/01/24 05:56:42;;;;;;;6.30;2.37;;;;;;;11.44;100.00;101984.13;4881679;29;20855;-87
2022/01/24 05:59:12;;;;;;;11.53;1.90;;;;;;;11.37;100.00;101966.66;4881890;29;20494;-87
2022/01/24 06:01:40;;;;;;;11.37;2.33;;;;;;;11.32;100.00;101963.59;4896986;29;20438;-87
2022/01/24 06:04:10;;;;;;;8.77;2.03;;;;;;;11.40;100.00;101988.22;4881349;29;20489;-87
2022/01/24 06:06:38;;;;;;;8.73;1.80;;;;;;;11.37;100.00;101985.81;4896542;29;20967;-87
2022/01/24 06:09:05;;;;;;;15.57;2.00;;;;;;;11.35;100.00;101983.25;4866007;29;20879;-87
2022/01/24 06:11:33;;;;;;;7.40;1.50;;;;;;;11.28;100.00;101987.69;4881153;29;20964;-86
2022/01/24 06:14:02;;;;;;;7.67;2.20;;;;;;;11.17;100.00;101984.41;4899686;29;20446;-87
2022/01/24 06:16:30;;;;;;;9.90;2.30;;;;;;;11.16;100.00;101985.47;4884963;29;20456;-88
2022/01/24 06:18:59;;;;;;;11.90;1.80;;;;;;;11.19;100.00;101990.56;4899968;29;20475;-87
2022/01/24 06:21:27;;;;;;;18.80;3.47;;;;;;;11.15;100.00;101997.44;4900438;29;20517;-87
2022/01/24 06:23:54;;;;;;;12.43;2.23;;;;;;;11.07;100.00;101993.63;4884747;29;20501;-87
2022/01/24 06:26:23;;;;;;;11.50;2.33;;;;;;;11.05;100.00;101998.41;4885270;29;20521;-87
2022/01/24 06:28:51;;;;;;;11.77;2.07;;;;;;;11.02;100.00;102009.69;4884782;29;20442;-87
2022/01/24 06:31:19;;;;;;;8.00;2.80;;;;;;;10.98;100.00;102008.28;4884714;29;20453;-87
2022/01/24 06:33:48;;;;;;;9.50;2.13;;;;;;;10.90;100.00;102019.22;4884429;29;20450;-87
2022/01/24 06:36:16;;;;;;;9.83;2.57;;;;;;;10.81;100.00;102027.53;4884404;29;20850;-87
2022/01/24 06:38:45;;;;;;;10.97;2.70;;;;;;;10.65;100.00;102022.84;4885012;29;20474;-87
2022/01/24 06:41:25;;;;;;;6.30;2.57;;;;;;;10.53;100.00;102013.22;4869281;29;20446;-87
2022/01/24 06:43:53;;;;;;;12.47;2.20;;;;;;;10.40;100.00;101997.25;4900043;29;20509;-87
2022/01/24 06:46:21;;;;;;;15.70;1.87;;;;;;;10.48;100.00;102024.63;4899465;29;20588;-88
2022/01/24 06:48:48;;;;;;;8.00;2.00;;;;;;;10.45;100.00;102019.50;4899744;29;20442;-87
2022/01/24 06:51:20;;;;;;;12.20;2.50;;;;;;;10.41;100.00;102019.97;4883951;29;20861;-87
2022/01/24 06:53:48;;;;;;;9.77;2.57;;;;;;;10.38;100.00;102022.03;4884268;29;20478;-86
2022/01/24 06:56:20;;;;;;;14.13;1.80;;;;;;;10.34;100.00;102020.63;4884936;29;20516;-86
2022/01/24 06:58:47;;;;;;;8.63;2.20;;;;;;;10.33;100.00;102018.91;4884055;29;20513;-87
2022/01/24 07:01:16;;;;;;;3.93;1.90;;;;;;;10.20;100.00;102003.97;4884305;29;20450;-87
2022/01/24 07:03:45;;;;;;;12.73;2.07;;;;;;;10.25;100.00;102010.66;4899580;29;20454;-87
2022/01/24 07:06:13;;;;;;;5.77;1.93;;;;;;;10.30;100.00;102026.56;4884061;29;20528;-87
2022/01/24 07:08:40;;;;;;;14.07;1.90;;;;;;;10.29;100.00;102022.97;4883901;29;21008;-87
2022/01/24 07:11:08;;;;;;;11.27;2.70;;;;;;;10.22;100.00;102021.03;4883751;29;20450;-86
2022/01/24 07:13:37;;;;;;;14.47;2.60;;;;;;;10.25;100.00;102026.19;4883241;29;20948;-87
2022/01/24 07:16:06;;;;;;;7.70;1.60;;;;;;;10.22;100.00;102021.91;4898889;29;20449;-86
2022/01/24 07:21:05;;;;;;;9.60;1.77;;;;;;;10.22;100.00;102016.44;4899080;29;20498;-87
2022/01/24 07:23:35;;;;;;;12.60;2.30;;;;;;;10.22;100.00;102021.03;4883631;29;20450;-87
2022/01/24 07:26:03;;;;;;;10.27;2.17;;;;;;;10.22;100.00;102021.03;4898373;29;20497;-87
2022/01/24 07:28:30;;;;;;;11.80;2.47;;;;;;;10.21;100.00;102031.13;4883574;29;20450;-87
2022/01/24 07:30:58;;;;;;;5.90;2.50;;;;;;;10.20;100.00;102044.97;4883378;29;20438;-86
2022/01/24 07:33:28;;;;;;;11.97;3.70;;;;;;;10.13;100.00;102033.78;4883186;29;20474;-87
2022/01/24 07:35:56;;;;;;;11.33;2.70;;;;;;;10.03;100.00;102027.53;4883757;29;20457;-87
2022/01/24 07:38:25;;;;;;;10.10;2.67;;;;;;;9.97;100.00;102039.97;4883070;29;20532;-87
2022/01/24 07:40:54;;;;;;;11.50;3.30;;;;;;;9.92;100.00;102039.56;4882971;29;20461;-87
2022/01/24 07:43:22;;;;;;;11.83;2.50;;;;;;;9.87;100.00;102035.59;4883425;29;20530;-86
2022/01/24 07:45:50;;;;;;;13.57;2.90;;;;;;;9.85;100.00;102033.03;4882671;29;20498;-87
2022/01/24 07:48:18;;;;;;;15.30;2.13;;;;;;;9.82;100.00;102038.78;4883132;29;20442;-87
2022/01/24 07:50:47;;;;;;;13.70;2.70;;;;;;;9.74;100.00;102040.59;4882873;29;20460;-87
2022/01/24 07:53:16;;;;;;;4.67;1.70;;;;;;;9.67;100.00;102046.69;4882925;29;20441;-86
2022/01/24 07:56:04;;;;;;;9.67;3.27;;;;;;;9.60;100.00;102048.34;4886084;29;20771;-86
2022/01/24 07:58:31;;;;;;;7.80;3.13;;;;;;;9.57;100.00;102047.78;4901153;29;20445;-86
2022/01/24 08:00:59;;;;;;;8.53;2.70;;;;;;;9.52;100.00;102056.44;4916907;29;20469;-87
2022/01/24 08:03:27;;;;;;;9.60;2.93;;;;;;;9.41;100.00;102042.16;4901143;29;20460;-86
2022/01/24 08:05:55;;;;;;;10.47;3.23;;;;;;;9.44;100.00;102053.59;4886029;29;20488;-87
2022/01/24 08:08:24;;;;;;;9.37;2.93;;;;;;;9.49;100.00;102061.34;4881229;29;20948;-87
2022/01/24 08:10:51;;;;;;;13.80;3.50;;;;;;;9.48;100.00;102056.88;4896502;29;20478;-87
2022/01/24 08:13:19;;;;;;;15.47;3.67;;;;;;;9.39;100.00;102045.03;4866726;29;20449;-87
2022/01/24 08:15:46;;;;;;;24.13;3.83;;;;;;;9.50;100.00;102063.91;4882389;29;20446;-87
2022/01/24 08:18:14;;;;;;;29.67;7.60;;;;;;;9.51;100.00;102071.09;4882402;29;20523;-87
2022/01/24 08:20:42;;;;;;;28.80;5.07;;;;;;;9.53;100.00;102070.94;4867420;29;20458;-87
2022/01/24 08:23:10;;;;;;;21.30;4.03;;;;;;;9.50;100.00;102073.97;4882146;29;20449;-87
2022/01/24 08:25:38;;;;;;;11.00;3.80;;;;;;;9.49;100.00;102070.38;4882542;29;20512;-88
2022/01/24 08:28:05;;;;;;;13.03;3.00;;;;;;;9.49;100.00;102067.66;4867817;29;20438;-87
2022/01/24 08:30:33;;;;;;;31.03;6.30;;;;;;;9.53;100.00;102076.41;4867603;29;20813;-88
2022/01/24 08:33:04;;;;;;;33.60;5.93;;;;;;;9.58;100.00;102083.13;4868014;29;20446;-88
2022/01/24 08:35:33;;;;;;;68.33;7.00;;;;;;;9.62;100.00;102089.97;4911669;29;20441;-86
2022/01/24 08:38:02;;;;;;;19.10;5.13;;;;;;;9.64;100.00;102073.44;4893052;29;20501;-86
2022/01/24 08:40:31;;;;;;;22.67;5.53;;;;;;;9.75;100.00;102099.66;4899239;29;20493;-86
2022/01/24 08:43:05;;;;;;;12.40;3.93;;;;;;;9.76;100.00;102090.44;4899654;29;20433;-87
2022/01/24 08:45:46;;;;;;;19.90;4.20;;;;;;;9.82;100.00;102087.06;4885735;29;20567;-86
2022/01/24 08:48:16;;;;;;;10.17;4.20;;;;;;;9.95;100.00;102093.03;4888041;29;20505;-87
2022/01/24 08:50:44;;;;;;;14.67;5.90;;;;;;;10.05;100.00;102096.53;4879237;29;20449;-87
2022/01/24 08:53:12;;;;;;;18.43;5.43;;;;;;;10.17;100.00;102105.34;4899809;29;20941;-86
2022/01/24 08:55:40;;;;;;;27.90;4.80;;;;;;;10.20;100.00;102088.69;4888878;29;20453;-87
2022/01/24 08:58:13;;;;;;;10.80;4.53;;;;;;;10.39;100.00;102091.22;4885790;29;20456;-87
2022/01/24 09:00:45;;;;;;;14.83;3.87;;;;;;;10.49;100.00;102094.69;4890482;29;20433;-88
2022/01/24 09:03:13;;;;;;;5.53;2.90;;;;;;;10.63;100.00;102093.22;4881173;29;20858;-89
2022/01/24 09:05:42;;;;;;;10.07;4.10;;;;;;;10.81;100.00;102110.44;4883993;29;20484;-86
2022/01/24 09:08:10;;;;;;;6.90;3.33;;;;;;;10.94;100.00;102113.63;4885964;29;20440;-92
2022/01/24 09:10:43;;;;;;;14.80;3.70;;;;;;;11.06;100.00;102109.56;4901616;29;20436;-93
2022/01/24 09:13:11;;;;;;;10.07;2.80;;;;;;;11.19;100.00;102110.97;4887017;29;20535;-87
2022/01/24 09:15:39;;;;;;;9.00;2.60;;;;;;;11.31;100.00;102109.66;4900693;29;20444;-87
2022/01/24 09:18:07;;;;;;;5.50;2.53;;;;;;;11.35;100.00;102097.38;4886629;29;20965;-86
2022/01/24 09:20:38;;;;;;;12.17;3.13;;;;;;;11.57;100.00;102102.22;4908347;29;20463;-85
2022/01/24 09:23:07;;;;;;;7.33;2.67;;;;;;;11.64;100.00;102092.31;4898685;29;20437;-86
2022/01/24 09:25:35;;;;;;;13.57;3.00;;;;;;;11.87;100.00;102106.25;4884461;29;20485;-86
2022/01/24 09:28:03;;;;;;;12.80;1.67;;;;;;;12.05;100.00;102111.59;4871354;29;20540;-87
2022/01/24 09:30:31;;;;;;;11.80;2.13;;;;;;;12.22;100.00;102101.47;4878521;29;20490;-86
2022/01/24 09:32:58;;;;;;;10.33;2.47;;;;;;;12.38;100.00;102109.69;4878729;29;20452;-86
2022/01/24 09:35:29;;;;;;;13.57;2.03;;;;;;;12.53;100.00;102098.88;4862448;29;20458;-87
2022/01/24 09:37:57;;;;;;;9.30;2.27;;;;;;;12.76;99.76;102110.84;4896394;29;20788;-86
2022/01/24 09:40:25;;;;;;;6.40;1.90;;;;;;;12.92;97.59;102105.31;4867169;29;20450;-87
2022/01/24 09:42:53;;;;;;;9.00;1.87;;;;;;;13.06;96.31;102112.84;4871067;29;21048;-88
2022/01/24 09:45:21;;;;;;;13.43;2.33;;;;;;;13.20;95.82;102103.03;4898528;29;21091;-87
2022/01/24 09:47:49;;;;;;;8.37;2.27;;;;;;;13.37;95.23;102118.41;4899955;29;20442;-87
2022/01/24 09:50:18;;;;;;;13.40;2.83;;;;;;;13.46;94.33;102111.00;4900467;29;20452;-87
2022/01/24 09:52:47;;;;;;;9.00;1.93;;;;;;;13.46;92.92;102092.63;4871124;29;20456;-87
2022/01/24 09:55:16;;;;;;;11.83;2.20;;;;;;;13.66;92.40;102109.47;4866683;29;20486;-87
2022/01/24 09:57:47;;;;;;;11.90;1.87;;;;;;;13.75;92.13;102108.41;4873644;29;20451;-90
2022/01/24 10:00:18;;;;;;;7.67;2.20;;;;;;;13.86;91.73;102115.38;4885155;29;20821;-84
2022/01/24 10:02:49;;;;;;;12.63;2.57;;;;;;;13.99;91.02;102120.28;4872159;29;20442;-86
2022/01/24 10:05:22;;;;;;;7.17;1.53;;;;;;;14.14;91.05;102132.19;4899908;29;20488;-86
2022/01/24 10:08:00;;;;;;;6.20;1.30;;;;;;;14.20;88.84;102131.47;4869389;29;20456;-85
2022/01/24 10:10:37;;;;;;;13.53;1.93;;;;;;;14.35;88.36;102135.13;4864891;29;20960;-94
2022/01/24 10:16:36;;;;;;;9.33;1.57;;;;;;;14.33;85.64;102139.97;4899952;29;20485;-85
2022/01/24 10:19:06;;;;;;;8.83;2.60;;;;;;;14.29;85.96;102149.59;4884806;29;20557;-85
2022/01/24 10:21:58;;;;;;;5.50;2.07;;;;;;;14.25;85.80;102148.25;4905874;29;20812;-86
2022/01/24 10:24:40;;;;;;;15.77;2.30;;;;;;;14.22;86.50;102145.91;4903826;29;20445;-89
2022/01/24 10:27:20;;;;;;;7.20;2.70;;;;;;;14.22;86.56;102148.66;4887856;29;20488;-86
2022/01/24 10:29:58;;;;;;;6.20;2.67;;;;;;;14.24;87.21;102152.03;4903233;29;20444;-87
2022/01/24 10:32:27;;;;;;;9.70;2.17;;;;;;;14.33;87.05;102161.09;4903305;29;20448;-86
2022/01/24 10:34:55;;;;;;;10.17;1.80;;;;;;;14.37;87.11;102157.81;4903182;29;20825;-86
2022/01/24 10:37:24;;;;;;;14.77;2.73;;;;;;;14.38;87.24;102151.28;4873581;29;20482;-86
2022/01/24 10:39:59;;;;;;;6.53;2.07;;;;;;;14.43;87.25;102150.75;4875307;29;20960;-86
2022/01/24 10:45:21;;;;;;;14.10;2.97;;;;;;;14.63;87.27;102142.81;4897416;29;20987;-86
2022/01/24 10:47:53;;;;;;;10.97;2.80;;;;;;;14.73;87.56;102146.16;4915224;29;20516;-85
2022/01/24 10:50:28;;;;;;;15.03;3.03;;;;;;;14.84;86.43;102143.81;4918814;29;20494;-85
2022/01/24 10:52:58;;;;;;;22.57;2.77;;;;;;;14.91;86.63;102154.06;4866188;29;20906;-85
2022/01/24 10:55:28;;;;;;;6.07;2.33;;;;;;;14.82;84.96;102153.28;4866786;29;20937;-83
2022/01/24 10:57:58;;;;;;;13.70;2.83;;;;;;;14.79;85.16;102139.94;4866092;29;20450;-85
2022/01/24 11:00:27;;;;;;;48.00;23.40;;;;;;;14.88;85.28;102144.28;4902107;29;20477;-85
2022/01/24 11:02:59;;;;;;;14.77;4.10;;;;;;;14.86;85.00;102143.63;4889914;29;20483;-88
2022/01/24 11:05:53;;;;;;;12.90;3.03;;;;;;;15.00;85.26;102148.31;4919222;29;20549;-85
2022/01/24 11:08:21;;;;;;;17.63;2.30;;;;;;;14.99;84.67;102149.34;4891266;29;20470;-93
2022/01/24 11:10:51;;;;;;;6.80;2.73;;;;;;;14.98;85.67;102142.13;4890081;29;20442;-85
2022/01/24 11:13:30;;;;;;;14.20;4.53;;;;;;;15.07;85.39;102143.75;4909404;29;20465;-86
2022/01/24 11:16:00;;;;;;;14.43;2.70;;;;;;;15.15;86.00;102148.31;4909934;29;20452;-86
2022/01/24 11:18:48;;;;;;;11.27;2.57;;;;;;;15.20;85.79;102151.38;4912507;29;20422;-86
2022/01/24 11:21:16;;;;;;;19.30;3.10;;;;;;;15.09;85.72;102136.16;4905681;29;20463;-85
2022/01/24 11:23:43;;;;;;;14.50;2.90;;;;;;;15.19;85.86;102153.25;4877053;29;20430;-85
2022/01/24 11:26:11;;;;;;;13.53;2.33;;;;;;;15.27;85.88;102154.19;4886067;29;20482;-85
2022/01/24 11:28:50;;;;;;;10.90;2.50;;;;;;;15.39;85.76;102160.94;4918510;29;20433;-91
2022/01/24 11:31:26;;;;;;;6.40;2.47;;;;;;;15.51;85.79;102159.41;4898540;29;20470;-91
2022/01/24 11:34:06;;;;;;;8.57;1.60;;;;;;;15.59;85.11;102164.00;4898298;29;20445;-86
2022/01/24 11:36:39;;;;;;;7.10;2.27;;;;;;;15.66;84.95;102163.03;4898359;29;20453;-86
2022/01/24 11:39:07;;;;;;;12.93;2.50;;;;;;;15.67;84.25;102150.97;4899081;29;20465;-84
2022/01/24 11:41:38;;;;;;;9.90;2.20;;;;;;;15.71;84.16;102144.00;4883555;29;20446;-84
2022/01/24 11:44:12;;;;;;;9.33;2.70;;;;;;;15.74;84.19;102138.13;4868998;29;20545;-87
2022/01/24 11:46:47;;;;;;;9.63;2.60;;;;;;;15.80;84.10;102148.34;4869354;29;20485;-88
2022/01/24 11:49:25;;;;;;;8.10;2.13;;;;;;;15.91;83.40;102143.41;4899972;29;20437;-88
2022/01/24 11:52:07;;;;;;;13.20;2.60;;;;;;;16.08;83.50;102137.44;4884582;29;20449;-87
2022/01/24 11:54:50;;;;;;;10.43;2.10;;;;;;;16.14;82.28;102131.16;4884098;29;20897;-89
2022/01/24 12:01:06;;;;;;;17.33;5.37;;;;;;;16.56;81.35;102126.63;4902536;29;20464;-89
2022/01/24 12:03:51;;;;;;;7.57;1.90;;;;;;;16.68;80.89;102130.59;4888454;29;20505;-88
2022/01/24 12:43:29;;;;;;;9.50;1.87;;;;;;;17.21;77.70;102086.75;5574502;23;20497;-89
2022/01/24 12:48:47;;;;;;;8.77;2.50;;;;;;;17.14;77.87;102075.66;4866337;29;20463;-88
2022/01/24 12:51:21;;;;;;;10.97;2.40;;;;;;;17.09;77.66;102080.97;4865183;29;20554;-88
2022/01/24 12:54:01;;;;;;;8.40;2.30;;;;;;;17.02;78.61;102093.88;4851470;29;20450;-88
2022/01/24 12:56:31;;;;;;;9.30;2.67;;;;;;;16.85;79.31;102073.16;4852696;29;20454;-88
2022/01/24 12:59:00;;;;;;;8.80;3.10;;;;;;;16.80;79.35;102083.94;4866249;29;20474;-88
2022/01/24 17:16:15;;;;;;;65.13;28.40;;;;;;;15.08;94.46;102123.41;4873279;29;20458;-90
2022/01/24 17:49:52;;;;;;;11.63;3.03;;;;;;;14.59;98.18;102147.00;4896243;29;20427;-91
2022/01/24 17:52:46;;;;;;;15.33;3.50;;;;;;;14.46;98.45;102145.72;4843364;29;20494;-90
2022/01/24 17:55:15;;;;;;;9.00;2.40;;;;;;;14.44;99.14;102147.78;4812720;29;20463;-90
2022/01/24 17:57:43;;;;;;;11.57;3.13;;;;;;;14.34;99.36;102146.31;4825698;29;20465;-91
2022/01/24 18:00:16;;;;;;;17.60;3.60;;;;;;;14.32;99.45;102142.88;4824156;29;20467;-91
2022/01/24 18:02:51;;;;;;;4.90;2.53;;;;;;;14.32;100.00;102149.25;4841833;29;20553;-91
2022/01/24 18:05:19;;;;;;;7.70;2.77;;;;;;;14.22;100.00;102142.28;4826729;29;20808;-91
2022/01/24 18:07:51;;;;;;;8.43;3.17;;;;;;;14.22;100.00;102154.16;4827431;29;20494;-93
2022/01/24 18:10:43;;;;;;;12.20;3.10;;;;;;;14.22;100.00;102158.78;4830881;29;20452;-92
2022/01/24 18:13:14;;;;;;;17.40;3.90;;;;;;;14.16;100.00;102160.38;4845554;29;20452;-92
2022/01/24 18:15:46;;;;;;;8.73;3.40;;;;;;;14.08;100.00;102152.16;4830233;29;20479;-93
2022/01/24 18:21:45;;;;;;;11.60;5.80;;;;;;;14.04;100.00;102161.84;4846076;29;20982;-92
2022/01/24 18:24:31;;;;;;;21.60;9.00;;;;;;;13.98;100.00;102157.06;4815856;29;20947;-93
2022/01/24 18:27:12;;;;;;;26.00;9.27;;;;;;;13.85;100.00;102152.16;4830713;29;20491;-92
2022/01/24 18:29:57;;;;;;;11.20;5.50;;;;;;;13.90;100.00;102168.09;4849598;29;20535;-94
2022/01/24 18:32:29;;;;;;;11.37;5.33;;;;;;;13.87;100.00;102171.19;4850087;29;20455;-92